Time;durP1;ratioP1;P1;durP2;ratioP2;P2;SDS_P1;SDS_P2;PMS_P1;PMS_P2;Temp;Humidity;BMP_temperature;BMP_pressure;BME280_temperature;BME280_humidity;BME280_pressure;Samples;Min_cycle;Max_cycle;Signal;HPM_P1;HPM_P2
2022/04/28 00:02:19;;;;;;;;;;;;;;;;;;5081219;28;19924;-69
2022/04/28 00:04:45;;;;;;;;;;;;;;;;;;5083080;28;20010;-68
2022/04/28 00:07:11;;;;;;;;;;;;;;;;;;5083754;28;19939;-68
2022/04/28 00:09:37;;;;;;;;;;;;;;;;;;5082489;28;19928;-69
2022/04/28 00:12:04;;;;;;;;;;;;;;;;;;5083044;28;19924;-68
2022/04/28 00:14:30;;;;;;;;;;;;;;;;;;5079506;28;19960;-67
2022/04/28 00:16:57;;;;;;;;;;;;;;;;;;5082516;28;20397;-67
2022/04/28 00:19:23;;;;;;;;;;;;;;;;;;5080728;28;20006;-68
2022/04/28 00:21:49;;;;;;;;;;;;;;;;;;5080501;28;19932;-68
2022/04/28 00:24:15;;;;;;;;;;;;;;;;;;5080605;28;19924;-68
2022/04/28 00:26:42;;;;;;;;;;;;;;;;;;5083739;28;19924;-68
2022/04/28 00:29:08;;;;;;;;;;;;;;;;;;5083178;28;19941;-68
2022/04/28 00:31:34;;;;;;;;;;;;;;;;;;5083633;28;19928;-68
2022/04/28 00:34:00;;;;;;;;;;;;;;;;;;5080723;28;19928;-68
2022/04/28 00:36:26;;;;;;;;;;;;;;;;;;5075558;28;19924;-70
2022/04/28 00:38:52;;;;;;;;;;;;;;;;;;5088409;28;19923;-68
2022/04/28 00:41:19;;;;;;;;;;;;;;;;;;5083925;28;19947;-68
2022/04/28 00:43:45;;;;;;;;;;;;;;;;;;5084412;28;20379;-68
2022/04/28 00:46:11;;;;;;;;;;;;;;;;;;5086258;28;19924;-68
2022/04/28 00:51:21;;;;;;;;;;;;;;;;;;5076761;28;20015;-70
2022/04/28 00:53:47;;;;;;;;;;;;;;;;;;5079859;28;20314;-69
2022/04/28 00:56:13;;;;;;;;;;;;;;;;;;5078909;28;19928;-68
2022/04/28 00:58:40;;;;;;;;;;;;;;;;;;5076709;28;19955;-68
2022/04/28 01:01:06;;;;;;;;;;;;;;;;;;5078732;28;19923;-68
2022/04/28 01:03:32;;;;;;;;;;;;;;;;;;5080082;28;19959;-67
2022/04/28 01:05:58;;;;;;;;;;;;;;;;;;5074766;28;19924;-67
2022/04/28 01:08:24;;;;;;;;;;;;;;;;;;5073774;28;20334;-66
2022/04/28 01:10:50;;;;;;;;;;;;;;;;;;5081416;28;20432;-68
2022/04/28 01:13:16;;;;;;;;;;;;;;;;;;5074084;28;19932;-66
2022/04/28 01:15:42;;;;;;;;;;;;;;;;;;5074349;28;20591;-68
2022/04/28 01:18:09;;;;;;;;;;;;;;;;;;5082717;28;20407;-67
2022/04/28 01:20:35;;;;;;;;;;;;;;;;;;5077600;28;20026;-68
2022/04/28 01:23:01;;;;;;;;;;;;;;;;;;5080565;28;19935;-69
2022/04/28 01:25:27;;;;;;;;;;;;;;;;;;5084359;28;19928;-68
2022/04/28 01:27:53;;;;;;;;;;;;;;;;;;5082717;28;20405;-68
2022/04/28 01:30:19;;;;;;;;;;;;;;;;;;5082313;28;19923;-68
2022/04/28 01:32:45;;;;;;;;;;;;;;;;;;5077404;28;19932;-68
2022/04/28 01:35:12;;;;;;;;;;;;;;;;;;5077722;28;19931;-69
2022/04/28 01:37:38;;;;;;;;;;;;;;;;;;5078807;28;19924;-69
2022/04/28 01:40:06;;;;;;;;;;;;;;;;;;5083106;28;19935;-68
2022/04/28 01:42:32;;;;;;;;;;;;;;;;;;5082089;28;19924;-69
2022/04/28 01:44:58;;;;;;;;;;;;;;;;;;5097068;28;19924;-68
2022/04/28 01:47:24;;;;;;;;;;;;;;;;;;5094725;28;19929;-68
2022/04/28 01:49:50;;;;;;;;;;;;;;;;;;5092604;28;19928;-68
2022/04/28 01:55:01;;;;;;;;;;;;;;;;;;5103722;28;20265;-69
2022/04/28 01:57:27;;;;;;;;;;;;;;;;;;5107308;28;19928;-68
2022/04/28 01:59:53;;;;;;;;;;;;;;;;;;5107780;28;19924;-68
2022/04/28 02:02:19;;;;;;;;;;;;;;;;;;5100174;28;19932;-69
2022/04/28 02:04:46;;;;;;;;;;;;;;;;;;5104472;28;19924;-68
2022/04/28 02:07:13;;;;;;;;;;;;;;;;;;5105784;28;19928;-70
2022/04/28 02:09:40;;;;;;;;;;;;;;;;;;5102511;28;19946;-71
2022/04/28 02:12:06;;;;;;;;;;;;;;;;;;5096904;28;19931;-68
2022/04/28 02:14:32;;;;;;;;;;;;;;;;;;5103559;28;19928;-69
2022/04/28 02:16:58;;;;;;;;;;;;;;;;;;5104973;28;19938;-68
2022/04/28 02:19:24;;;;;;;;;;;;;;;;;;5099982;28;19928;-67
2022/04/28 02:21:50;;;;;;;;;;;;;;;;;;5095127;28;19932;-68
2022/04/28 02:24:16;;;;;;;;;;;;;;;;;;5088512;28;19924;-69
2022/04/28 02:26:42;;;;;;;;;;;;;;;;;;5086775;28;20355;-69
2022/04/28 02:29:09;;;;;;;;;;;;;;;;;;5084137;28;19932;-68
2022/04/28 02:31:35;;;;;;;;;;;;;;;;;;5090267;28;20011;-66
2022/04/28 02:34:01;;;;;;;;;;;;;;;;;;5092534;28;19934;-68
2022/04/28 02:36:27;;;;;;;;;;;;;;;;;;5099122;28;19928;-68
2022/04/28 02:38:53;;;;;;;;;;;;;;;;;;5091862;28;20137;-67
2022/04/28 02:41:21;;;;;;;;;;;;;;;;;;5091688;28;19935;-68
2022/04/28 02:43:47;;;;;;;;;;;;;;;;;;5092503;28;20456;-69
2022/04/28 02:46:13;;;;;;;;;;;;;;;;;;5094544;28;19931;-67
2022/04/28 02:48:39;;;;;;;;;;;;;;;;;;5089263;28;19924;-69
2022/04/28 02:51:06;;;;;;;;;;;;;;;;;;5091415;28;19936;-67
2022/04/28 02:53:32;;;;;;;;;;;;;;;;;;5100061;28;19944;-69
2022/04/28 02:55:58;;;;;;;;;;;;;;;;;;5101047;28;19931;-68
2022/04/28 02:58:24;;;;;;;;;;;;;;;;;;5102545;28;20177;-68
2022/04/28 03:00:50;;;;;;;;;;;;;;;;;;5102430;28;20007;-67
2022/04/28 03:03:16;;;;;;;;;;;;;;;;;;5101338;28;20178;-69
2022/04/28 03:11:11;;;;;;;;;;;;;;;;;;5097453;28;19918;-70
2022/04/28 03:13:38;;;;;;;;;;;;;;;;;;5093626;28;19924;-68
2022/04/28 03:16:04;;;;;;;;;;;;;;;;;;5095842;28;19930;-69
2022/04/28 03:18:31;;;;;;;;;;;;;;;;;;5096960;28;19934;-69
2022/04/28 03:20:57;;;;;;;;;;;;;;;;;;5116300;22;19935;-74
2022/04/28 03:23:23;;;;;;;;;;;;;;;;;;5078320;28;19931;-75
2022/04/28 03:25:51;;;;;;;;;;;;;;;;;;5076216;28;19930;-74
2022/04/28 03:28:17;;;;;;;;;;;;;;;;;;5076857;28;19988;-74
2022/04/28 03:30:44;;;;;;;;;;;;;;;;;;5073085;28;19925;-75
2022/04/28 03:33:10;;;;;;;;;;;;;;;;;;5071485;28;20489;-75
2022/04/28 03:35:36;;;;;;;;;;;;;;;;;;5068068;28;19932;-75
2022/04/28 03:38:02;;;;;;;;;;;;;;;;;;5067939;28;19928;-75
2022/04/28 03:40:28;;;;;;;;;;;;;;;;;;5070673;28;19932;-76
2022/04/28 03:42:54;;;;;;;;;;;;;;;;;;5069851;28;19924;-73
2022/04/28 03:45:21;;;;;;;;;;;;;;;;;;5065002;28;19933;-74
2022/04/28 03:47:47;;;;;;;;;;;;;;;;;;5062241;28;19924;-76
2022/04/28 03:50:13;;;;;;;;;;;;;;;;;;5068175;28;19928;-73
2022/04/28 03:52:40;;;;;;;;;;;;;;;;;;5059974;28;20419;-75
2022/04/28 03:55:06;;;;;;;;;;;;;;;;;;5068923;28;19928;-77
2022/04/28 03:57:32;;;;;;;;;;;;;;;;;;5068619;28;19932;-71
2022/04/28 03:59:59;;;;;;;;;;;;;;;;;;5061369;28;19932;-73
2022/04/28 04:02:25;;;;;;;;;;;;;;;;;;5058454;28;19947;-71
2022/04/28 04:04:51;;;;;;;;;;;;;;;;;;5061638;28;20002;-74
2022/04/28 04:07:17;;;;;;;;;;;;;;;;;;5063066;28;19925;-73
2022/04/28 04:09:43;;;;;;;;;;;;;;;;;;5062331;28;19931;-73
2022/04/28 04:12:09;;;;;;;;;;;;;;;;;;5057572;28;19931;-74
2022/04/28 04:14:36;;;;;;;;;;;;;;;;;;5058734;28;20356;-74
2022/04/28 04:17:02;;;;;;;;;;;;;;;;;;5067421;28;19925;-76
2022/04/28 04:19:28;;;;;;;;;;;;;;;;;;5061093;28;20338;-75
2022/04/28 04:21:54;;;;;;;;;;;;;;;;;;5061956;28;20370;-77
2022/04/28 04:24:20;;;;;;;;;;;;;;;;;;5065114;28;19933;-74
2022/04/28 04:26:46;;;;;;;;;;;;;;;;;;5070064;28;19931;-73
2022/04/28 04:29:13;;;;;;;;;;;;;;;;;;5066082;28;19936;-73
2022/04/28 04:34:24;;;;;;;;;;;;;;;;;;5062387;28;19927;-74
2022/04/28 04:36:50;;;;;;;;;;;;;;;;;;5072459;28;20005;-74
2022/04/28 04:39:16;;;;;;;;;;;;;;;;;;5066123;28;20290;-75
2022/04/28 04:41:42;;;;;;;;;;;;;;;;;;5069788;28;20290;-75
2022/04/28 04:44:13;;;;;;;;;;;;;;;;;;5073592;28;20513;-73
2022/04/28 04:46:39;;;;;;;;;;;;;;;;;;5072877;28;19951;-73
2022/04/28 04:49:05;;;;;;;;;;;;;;;;;;5069330;28;19925;-73
2022/04/28 04:51:31;;;;;;;;;;;;;;;;;;5064010;28;19925;-76
2022/04/28 04:53:57;;;;;;;;;;;;;;;;;;5077220;28;19924;-75
2022/04/28 04:56:23;;;;;;;;;;;;;;;;;;5059758;28;20535;-73
2022/04/28 04:58:50;;;;;;;;;;;;;;;;;;5074689;28;19928;-75
2022/04/28 05:01:16;;;;;;;;;;;;;;;;;;5067280;28;19939;-73
2022/04/28 05:03:42;;;;;;;;;;;;;;;;;;5067252;28;20615;-75
2022/04/28 05:06:08;;;;;;;;;;;;;;;;;;5079959;28;19939;-74
2022/04/28 05:08:34;;;;;;;;;;;;;;;;;;5061970;28;19932;-75
2022/04/28 05:11:00;;;;;;;;;;;;;;;;;;5062630;28;20642;-74
2022/04/28 05:13:26;;;;;;;;;;;;;;;;;;5064966;28;20296;-75
2022/04/28 05:15:53;;;;;;;;;;;;;;;;;;5069040;28;20306;-75
2022/04/28 05:18:19;;;;;;;;;;;;;;;;;;5061541;28;20159;-74
2022/04/28 05:20:45;;;;;;;;;;;;;;;;;;5062112;28;19924;-75
2022/04/28 05:23:11;;;;;;;;;;;;;;;;;;4367166;28;10020709;-74
2022/04/28 05:25:37;;;;;;;;;;;;;;;;;;5064014;28;19929;-71
2022/04/28 05:28:03;;;;;;;;;;;;;;;;;;5062207;28;20406;-76
2022/04/28 05:30:29;;;;;;;;;;;;;;;;;;5063132;28;19932;-77
2022/04/28 05:32:55;;;;;;;;;;;;;;;;;;5063264;28;19924;-71
2022/04/28 05:35:22;;;;;;;;;;;;;;;;;;5065955;28;20409;-70
2022/04/28 05:37:48;;;;;;;;;;;;;;;;;;5057874;28;19932;-72
2022/04/28 05:40:15;;;;;;;;;;;;;;;;;;5076540;28;20102;-75
2022/04/28 05:45:46;;;;;;;;;;;;;;;;;;5071148;28;19923;-74
2022/04/28 05:48:12;;;;;;;;;;;;;;;;;;5058881;28;20343;-74
2022/04/28 05:50:38;;;;;;;;;;;;;;;;;;5067563;28;19940;-73
2022/04/28 05:53:04;;;;;;;;;;;;;;;;;;5064279;28;19937;-74
2022/04/28 05:55:30;;;;;;;;;;;;;;;;;;5072615;28;19935;-73
2022/04/28 05:57:58;;;;;;;;;;;;;;;;;;5072964;28;19924;-74
2022/04/28 06:00:24;;;;;;;;;;;;;;;;;;5059740;28;19929;-74
2022/04/28 06:02:51;;;;;;;;;;;;;;;;;;5062796;28;20390;-73
2022/04/28 06:05:17;;;;;;;;;;;;;;;;;;5062967;28;19928;-73
2022/04/28 06:07:43;;;;;;;;;;;;;;;;;;5067643;28;20028;-75
2022/04/28 06:10:09;;;;;;;;;;;;;;;;;;5065869;28;19924;-74
2022/04/28 06:12:35;;;;;;;;;;;;;;;;;;5059614;28;19933;-72
2022/04/28 06:15:01;;;;;;;;;;;;;;;;;;5064671;28;19928;-72
2022/04/28 06:17:27;;;;;;;;;;;;;;;;;;5055568;28;20201;-73
2022/04/28 06:19:53;;;;;;;;;;;;;;;;;;5061350;28;19935;-74
2022/04/28 06:22:20;;;;;;;;;;;;;;;;;;5061877;28;20343;-74
2022/04/28 06:24:46;;;;;;;;;;;;;;;;;;5067733;28;19950;-75
2022/04/28 06:27:12;;;;;;;;;;;;;;;;;;5063536;28;19925;-76
2022/04/28 06:29:38;;;;;;;;;;;;;;;;;;5063056;28;19924;-76
2022/04/28 06:32:04;;;;;;;;;;;;;;;;;;5061204;28;19925;-76
2022/04/28 06:34:30;;;;;;;;;;;;;;;;;;5071452;28;19936;-76
2022/04/28 06:36:56;;;;;;;;;;;;;;;;;;5070270;28;20038;-76
2022/04/28 06:39:22;;;;;;;;;;;;;;;;;;5072549;28;19924;-76
2022/04/28 06:41:49;;;;;;;;;;;;;;;;;;5063469;28;19928;-77
2022/04/28 06:44:15;;;;;;;;;;;;;;;;;;5070341;28;19974;-75
2022/04/28 06:46:41;;;;;;;;;;;;;;;;;;4716547;28;9999974;-75
2022/04/28 06:49:07;;;;;;;;;;;;;;;;;;5069050;28;19935;-76
2022/04/28 06:51:33;;;;;;;;;;;;;;;;;;5062763;28;19933;-76
2022/04/28 06:54:00;;;;;;;;;;;;;;;;;;5064051;28;19924;-78
2022/04/28 06:56:26;;;;;;;;;;;;;;;;;;5071265;28;19958;-77
2022/04/28 06:58:53;;;;;;;;;;;;;;;;;;5064263;28;19933;-76
2022/04/28 07:01:19;;;;;;;;;;;;;;;;;;5066050;28;19935;-76
2022/04/28 07:03:45;;;;;;;;;;;;;;;;;;5067656;28;19944;-77
2022/04/28 07:06:11;;;;;;;;;;;;;;;;;;5065418;28;19934;-77
2022/04/28 07:08:37;;;;;;;;;;;;;;;;;;5073836;28;19932;-76
2022/04/28 07:11:03;;;;;;;;;;;;;;;;;;5069548;28;19932;-77
2022/04/28 07:13:29;;;;;;;;;;;;;;;;;;5066742;28;19932;-78
2022/04/28 07:15:55;;;;;;;;;;;;;;;;;;5070386;28;19935;-76
2022/04/28 07:18:22;;;;;;;;;;;;;;;;;;5065063;28;19928;-76
2022/04/28 07:20:48;;;;;;;;;;;;;;;;;;5065229;28;19929;-77
2022/04/28 07:23:14;;;;;;;;;;;;;;;;;;5071522;28;19947;-77
2022/04/28 07:25:40;;;;;;;;;;;;;;;;;;5062681;28;19933;-75
2022/04/28 07:28:06;;;;;;;;;;;;;;;;;;5070310;28;19929;-77
2022/04/28 07:30:32;;;;;;;;;;;;;;;;;;5067488;28;19935;-77
2022/04/28 07:32:58;;;;;;;;;;;;;;;;;;5065903;28;20203;-76
2022/04/28 07:35:25;;;;;;;;;;;;;;;;;;5069767;28;19932;-77
2022/04/28 07:37:51;;;;;;;;;;;;;;;;;;5080195;28;19912;-79
2022/04/28 07:40:18;;;;;;;;;;;;;;;;;;5089062;28;19917;-77
2022/04/28 07:42:44;;;;;;;;;;;;;;;;;;5069495;28;20338;-77
2022/04/28 07:45:10;;;;;;;;;;;;;;;;;;5061599;28;20367;-76
2022/04/28 07:47:36;;;;;;;;;;;;;;;;;;5061909;28;20339;-77
2022/04/28 07:50:03;;;;;;;;;;;;;;;;;;5060285;28;19924;-77
2022/04/28 07:52:29;;;;;;;;;;;;;;;;;;5059769;28;19939;-77
2022/04/28 07:54:55;;;;;;;;;;;;;;;;;;5065076;28;19924;-74
2022/04/28 07:57:23;;;;;;;;;;;;;;;;;;5065171;28;19924;-75
2022/04/28 07:59:49;;;;;;;;;;;;;;;;;;5063264;28;19928;-78
2022/04/28 08:02:15;;;;;;;;;;;;;;;;;;5065392;28;20000;-77
2022/04/28 08:04:41;;;;;;;;;;;;;;;;;;5066223;28;19925;-78
2022/04/28 08:07:07;;;;;;;;;;;;;;;;;;5065904;28;19947;-77
2022/04/28 08:09:34;;;;;;;;;;;;;;;;;;5059629;28;19933;-76
2022/04/28 08:12:00;;;;;;;;;;;;;;;;;;5058684;28;19970;-77
2022/04/28 08:14:26;;;;;;;;;;;;;;;;;;5059668;28;19934;-74
2022/04/28 08:16:54;;;;;;;;;;;;;;;;;;5060484;28;20136;-77
2022/04/28 08:19:20;;;;;;;;;;;;;;;;;;5060679;28;19925;-75
2022/04/28 08:21:46;;;;;;;;;;;;;;;;;;5064794;28;19940;-77
2022/04/28 08:24:14;;;;;;;;;;;;;;;;;;5074323;28;19928;-76
2022/04/28 08:26:40;;;;;;;;;;;;;;;;;;5073243;28;20534;-77
2022/04/28 08:29:06;;;;;;;;;;;;;;;;;;5052205;28;19998;-77
2022/04/28 08:31:33;;;;;;;;;;;;;;;;;;5064194;28;20388;-77
2022/04/28 08:33:59;;;;;;;;;;;;;;;;;;5050806;28;19924;-76
2022/04/28 08:36:25;;;;;;;;;;;;;;;;;;5053522;28;19951;-77
2022/04/28 08:38:52;;;;;;;;;;;;;;;;;;5065719;28;19925;-74
2022/04/28 08:41:18;;;;;;;;;;;;;;;;;;5057474;28;20405;-77
2022/04/28 08:43:45;;;;;;;;;;;;;;;;;;5058782;28;19929;-78
2022/04/28 08:48:54;;;;;;;;;;;;;;;;;;5058493;28;19922;-80
2022/04/28 08:51:20;;;;;;;;;;;;;;;;;;5047944;28;19943;-76
2022/04/28 08:53:47;;;;;;;;;;;;;;;;;;5060522;28;19928;-79
2022/04/28 08:56:13;;;;;;;;;;;;;;;;;;5058592;28;20530;-76
2022/04/28 08:58:39;;;;;;;;;;;;;;;;;;5060539;28;20390;-77
2022/04/28 09:01:05;;;;;;;;;;;;;;;;;;5057275;28;20422;-79
2022/04/28 09:03:32;;;;;;;;;;;;;;;;;;5056946;28;19936;-79
2022/04/28 09:05:58;;;;;;;;;;;;;;;;;;5064595;28;19928;-79
2022/04/28 09:08:25;;;;;;;;;;;;;;;;;;5062222;28;19932;-78
2022/04/28 09:10:51;;;;;;;;;;;;;;;;;;5054903;28;19929;-77
2022/04/28 09:16:01;;;;;;;;;;;;;;;;;;5060566;28;19943;-77
2022/04/28 09:18:27;;;;;;;;;;;;;;;;;;5054106;28;19935;-77
2022/04/28 09:20:53;;;;;;;;;;;;;;;;;;5063236;28;19936;-78
2022/04/28 09:23:20;;;;;;;;;;;;;;;;;;5081059;22;19975;-72
2022/04/28 09:25:46;;;;;;;;;;;;;;;;;;5080653;28;19928;-74
2022/04/28 09:28:12;;;;;;;;;;;;;;;;;;5074320;28;19932;-73
2022/04/28 09:30:39;;;;;;;;;;;;;;;;;;5081302;28;20293;-74
2022/04/28 09:33:05;;;;;;;;;;;;;;;;;;5083988;28;19932;-77
2022/04/28 09:35:31;;;;;;;;;;;;;;;;;;5090697;28;20359;-73
2022/04/28 09:37:58;;;;;;;;;;;;;;;;;;5086597;28;20488;-73
2022/04/28 09:43:08;;;;;;;;;;;;;;;;;;5074793;28;20049;-75
2022/04/28 09:45:34;;;;;;;;;;;;;;;;;;5083782;28;19932;-75
2022/04/28 09:48:01;;;;;;;;;;;;;;;;;;5086366;28;20314;-75
2022/04/28 09:50:27;;;;;;;;;;;;;;;;;;5086131;28;19932;-77
2022/04/28 09:52:54;;;;;;;;;;;;;;;;;;5086110;28;19931;-75
2022/04/28 09:55:20;;;;;;;;;;;;;;;;;;5083744;28;20141;-76
2022/04/28 09:57:46;;;;;;;;;;;;;;;;;;5080624;28;19928;-74
2022/04/28 10:00:12;;;;;;;;;;;;;;;;;;5080417;28;19965;-76
2022/04/28 10:02:39;;;;;;;;;;;;;;;;;;5082122;28;20351;-75
2022/04/28 10:05:05;;;;;;;;;;;;;;;;;;5082103;28;19928;-76
2022/04/28 10:07:31;;;;;;;;;;;;;;;;;;5081071;28;19940;-76
2022/04/28 10:09:57;;;;;;;;;;;;;;;;;;5083986;28;20510;-76
2022/04/28 10:12:25;;;;;;;;;;;;;;;;;;5085942;28;19939;-76
2022/04/28 10:14:53;;;;;;;;;;;;;;;;;;5086425;28;20027;-75
2022/04/28 10:17:19;;;;;;;;;;;;;;;;;;5086286;28;19931;-75
2022/04/28 10:19:45;;;;;;;;;;;;;;;;;;5082477;28;20578;-73
2022/04/28 10:22:11;;;;;;;;;;;;;;;;;;5085679;28;20129;-73
2022/04/28 10:32:51;;;;;;;;;;;;;;;;;;5090532;28;19931;-74
2022/04/28 10:35:17;;;;;;;;;;;;;;;;;;5087594;28;19938;-76
2022/04/28 10:37:45;;;;;;;;;;;;;;;;;;5089478;28;19928;-75
2022/04/28 10:40:11;;;;;;;;;;;;;;;;;;5089834;28;20465;-75
2022/04/28 10:42:37;;;;;;;;;;;;;;;;;;5086885;28;20318;-74
2022/04/28 10:45:07;;;;;;;;;;;;;;;;;;5082573;28;20378;-75
2022/04/28 10:47:33;;;;;;;;;;;;;;;;;;5077803;28;19929;-74
2022/04/28 10:49:59;;;;;;;;;;;;;;;;;;5082243;28;19928;-75
2022/04/28 10:52:25;;;;;;;;;;;;;;;;;;5086118;28;19935;-74
2022/04/28 10:54:51;;;;;;;;;;;;;;;;;;5086791;28;19932;-75
2022/04/28 10:57:18;;;;;;;;;;;;;;;;;;5086047;28;19939;-76
2022/04/28 10:59:45;;;;;;;;;;;;;;;;;;5080891;28;19928;-76
2022/04/28 11:02:11;;;;;;;;;;;;;;;;;;5078047;28;19929;-72
2022/04/28 11:04:37;;;;;;;;;;;;;;;;;;5084173;28;19928;-76
2022/04/28 11:07:03;;;;;;;;;;;;;;;;;;5085482;28;19935;-76
2022/04/28 11:09:29;;;;;;;;;;;;;;;;;;5085419;28;19939;-76
2022/04/28 11:11:56;;;;;;;;;;;;;;;;;;5082469;28;19928;-76
2022/04/28 11:14:22;;;;;;;;;;;;;;;;;;5082494;28;19936;-75
2022/04/28 11:16:48;;;;;;;;;;;;;;;;;;5073173;28;19937;-74
2022/04/28 11:19:14;;;;;;;;;;;;;;;;;;5085308;28;19924;-75
2022/04/28 11:21:43;;;;;;;;;;;;;;;;;;5087242;28;19930;-75
2022/04/28 11:24:09;;;;;;;;;;;;;;;;;;5080643;28;19940;-74
2022/04/28 11:26:35;;;;;;;;;;;;;;;;;;5088898;28;19928;-75
2022/04/28 11:29:01;;;;;;;;;;;;;;;;;;5080953;28;19924;-73
2022/04/28 11:31:27;;;;;;;;;;;;;;;;;;5086968;28;19932;-79
2022/04/28 11:33:53;;;;;;;;;;;;;;;;;;5085444;28;20407;-77
2022/04/28 11:36:19;;;;;;;;;;;;;;;;;;5085162;28;19924;-74
2022/04/28 11:38:45;;;;;;;;;;;;;;;;;;5088899;28;19932;-77
2022/04/28 11:41:12;;;;;;;;;;;;;;;;;;5086989;28;19931;-74
2022/04/28 11:43:38;;;;;;;;;;;;;;;;;;5075887;28;19928;-74
2022/04/28 11:46:05;;;;;;;;;;;;;;;;;;5079718;28;19927;-76
2022/04/28 11:48:32;;;;;;;;;;;;;;;;;;5085252;28;19935;-75
2022/04/28 11:50:58;;;;;;;;;;;;;;;;;;5087032;28;20015;-75
2022/04/28 11:53:25;;;;;;;;;;;;;;;;;;5085949;28;19928;-74
2022/04/28 11:55:51;;;;;;;;;;;;;;;;;;5085536;28;19954;-75
2022/04/28 11:58:17;;;;;;;;;;;;;;;;;;5084715;28;19928;-75
2022/04/28 12:00:43;;;;;;;;;;;;;;;;;;5089795;28;19932;-75
2022/04/28 12:03:09;;;;;;;;;;;;;;;;;;5085802;28;19930;-74
2022/04/28 12:05:35;;;;;;;;;;;;;;;;;;5088154;28;19928;-75
2022/04/28 12:08:01;;;;;;;;;;;;;;;;;;5085572;28;19924;-75
2022/04/28 12:15:55;;;;;;;;;;;;;;;;;;5084582;28;19927;-75
2022/04/28 12:21:06;;;;;;;;;;;;;;;;;;5084185;28;20306;-75
2022/04/28 12:23:32;;;;;;;;;;;;;;;;;;5082422;28;20375;-72
2022/04/28 12:25:58;;;;;;;;;;;;;;;;;;5081428;28;20461;-76
2022/04/28 12:28:26;;;;;;;;;;;;;;;;;;5077911;28;19924;-73
2022/04/28 12:30:52;;;;;;;;;;;;;;;;;;5087168;28;19934;-75
2022/04/28 12:33:18;;;;;;;;;;;;;;;;;;5077305;28;19928;-75
2022/04/28 12:35:44;;;;;;;;;;;;;;;;;;5066134;28;20442;-74
2022/04/28 12:38:10;;;;;;;;;;;;;;;;;;5084342;28;20398;-74
2022/04/28 12:40:37;;;;;;;;;;;;;;;;;;5072178;28;20016;-74
2022/04/28 12:43:03;;;;;;;;;;;;;;;;;;5076491;28;20197;-76
2022/04/28 12:45:29;;;;;;;;;;;;;;;;;;5074997;28;19954;-76
2022/04/28 12:47:55;;;;;;;;;;;;;;;;;;5083144;28;19935;-76
2022/04/28 12:50:21;;;;;;;;;;;;;;;;;;5085242;28;20449;-76
2022/04/28 12:52:47;;;;;;;;;;;;;;;;;;5074099;28;19924;-76
2022/04/28 12:55:14;;;;;;;;;;;;;;;;;;5082966;28;20027;-76
2022/04/28 12:57:40;;;;;;;;;;;;;;;;;;5080197;28;20472;-76
2022/04/28 13:00:06;;;;;;;;;;;;;;;;;;5068083;28;19929;-76
2022/04/28 13:02:33;;;;;;;;;;;;;;;;;;5070634;28;19928;-75
2022/04/28 13:04:59;;;;;;;;;;;;;;;;;;5066640;28;19932;-77
2022/04/28 13:07:25;;;;;;;;;;;;;;;;;;5064274;28;19935;-76
2022/04/28 13:09:51;;;;;;;;;;;;;;;;;;5064439;28;19928;-77
2022/04/28 13:12:26;;;;;;;;;;;;;;;;;;5076543;28;19935;-77
2022/04/28 13:14:52;;;;;;;;;;;;;;;;;;5080446;28;19935;-77
2022/04/28 13:17:19;;;;;;;;;;;;;;;;;;5082433;28;19985;-77
2022/04/28 13:19:45;;;;;;;;;;;;;;;;;;5084443;28;20187;-78
2022/04/28 13:22:11;;;;;;;;;;;;;;;;;;5073455;28;19929;-76
2022/04/28 13:24:37;;;;;;;;;;;;;;;;;;5071545;28;19974;-75
2022/04/28 13:27:03;;;;;;;;;;;;;;;;;;5086187;28;20295;-77
2022/04/28 13:29:29;;;;;;;;;;;;;;;;;;5084473;28;20383;-75
2022/04/28 13:31:56;;;;;;;;;;;;;;;;;;5084288;28;20318;-75
2022/04/28 13:34:22;;;;;;;;;;;;;;;;;;5069722;28;19947;-75
2022/04/28 13:36:48;;;;;;;;;;;;;;;;;;5085437;28;19924;-76
2022/04/28 13:39:14;;;;;;;;;;;;;;;;;;5085111;28;20026;-76
2022/04/28 13:41:42;;;;;;;;;;;;;;;;;;5078624;28;19929;-75
2022/04/28 13:44:10;;;;;;;;;;;;;;;;;;5063539;28;20423;-75
2022/04/28 13:46:37;;;;;;;;;;;;;;;;;;5077766;28;20412;-75
2022/04/28 13:49:03;;;;;;;;;;;;;;;;;;5070105;28;19931;-76
2022/04/28 13:51:29;;;;;;;;;;;;;;;;;;5076758;28;20395;-74
2022/04/28 13:53:55;;;;;;;;;;;;;;;;;;5084553;28;20011;-76
2022/04/28 13:56:22;;;;;;;;;;;;;;;;;;5080336;28;19932;-75
2022/04/28 13:58:49;;;;;;;;;;;;;;;;;;5072699;28;19924;-77
2022/04/28 14:01:15;;;;;;;;;;;;;;;;;;5078721;28;19936;-75
2022/04/28 14:03:42;;;;;;;;;;;;;;;;;;5070441;28;19969;-76
2022/04/28 14:06:08;;;;;;;;;;;;;;;;;;5080302;28;19928;-75
2022/04/28 14:08:35;;;;;;;;;;;;;;;;;;5082098;28;19928;-75
2022/04/28 14:11:04;;;;;;;;;;;;;;;;;;5078698;28;19946;-74
2022/04/28 14:13:30;;;;;;;;;;;;;;;;;;5080407;28;19932;-75
2022/04/28 14:15:56;;;;;;;;;;;;;;;;;;5080815;28;20449;-75
2022/04/28 14:18:22;;;;;;;;;;;;;;;;;;5069026;28;19940;-74
2022/04/28 14:20:48;;;;;;;;;;;;;;;;;;5075446;28;19939;-74
2022/04/28 14:23:14;;;;;;;;;;;;;;;;;;5080684;28;20378;-75
2022/04/28 14:25:40;;;;;;;;;;;;;;;;;;5077408;28;19932;-73
2022/04/28 14:28:07;;;;;;;;;;;;;;;;;;5078133;28;19928;-74
2022/04/28 14:30:33;;;;;;;;;;;;;;;;;;5081330;28;19935;-73
2022/04/28 14:32:59;;;;;;;;;;;;;;;;;;5079118;28;19928;-73
2022/04/28 14:35:25;;;;;;;;;;;;;;;;;;5081703;28;19950;-75
2022/04/28 14:37:51;;;;;;;;;;;;;;;;;;5079422;28;20076;-75
2022/04/28 14:40:18;;;;;;;;;;;;;;;;;;5081448;28;20452;-75
2022/04/28 14:42:44;;;;;;;;;;;;;;;;;;5074623;28;20009;-73
2022/04/28 14:45:10;;;;;;;;;;;;;;;;;;5073931;28;19931;-74
2022/04/28 14:47:36;;;;;;;;;;;;;;;;;;5077536;28;19932;-74
2022/04/28 14:52:46;;;;;;;;;;;;;;;;;;5080697;28;19919;-74
2022/04/28 14:55:13;;;;;;;;;;;;;;;;;;5077010;28;19929;-74
2022/04/28 14:57:39;;;;;;;;;;;;;;;;;;5083817;28;20140;-73
2022/04/28 15:00:05;;;;;;;;;;;;;;;;;;5083924;28;19932;-74
2022/04/28 15:02:32;;;;;;;;;;;;;;;;;;5076808;28;20020;-72
2022/04/28 15:04:59;;;;;;;;;;;;;;;;;;5083394;28;20446;-72
2022/04/28 15:07:25;;;;;;;;;;;;;;;;;;5082835;28;19928;-73
2022/04/28 15:09:51;;;;;;;;;;;;;;;;;;5081204;28;19936;-75
2022/04/28 15:12:17;;;;;;;;;;;;;;;;;;5082364;28;19928;-75
2022/04/28 15:14:44;;;;;;;;;;;;;;;;;;5084097;28;19924;-75
2022/04/28 15:17:10;;;;;;;;;;;;;;;;;;5081046;28;19931;-75
2022/04/28 15:19:36;;;;;;;;;;;;;;;;;;5082970;28;19956;-75
2022/04/28 15:22:02;;;;;;;;;;;;;;;;;;5083322;28;19928;-75
2022/04/28 15:24:28;;;;;;;;;;;;;;;;;;5098350;22;20359;-78
2022/04/28 15:26:55;;;;;;;;;;;;;;;;;;5068215;28;19928;-78
2022/04/28 15:29:21;;;;;;;;;;;;;;;;;;5065014;28;19932;-76
2022/04/28 15:31:47;;;;;;;;;;;;;;;;;;5067674;28;20320;-78
2022/04/28 15:34:14;;;;;;;;;;;;;;;;;;5066207;28;20142;-76
2022/04/28 15:36:40;;;;;;;;;;;;;;;;;;5063324;28;20007;-78
2022/04/28 15:39:06;;;;;;;;;;;;;;;;;;5066276;28;20071;-78
2022/04/28 15:41:32;;;;;;;;;;;;;;;;;;5059931;28;19939;-77
2022/04/28 15:43:58;;;;;;;;;;;;;;;;;;5062795;28;19970;-78
2022/04/28 15:46:25;;;;;;;;;;;;;;;;;;5063874;28;19935;-77
2022/04/28 15:48:51;;;;;;;;;;;;;;;;;;5059306;28;19929;-77
2022/04/28 15:51:17;;;;;;;;;;;;;;;;;;5065055;28;19928;-78
2022/04/28 15:53:43;;;;;;;;;;;;;;;;;;5067028;28;20139;-77
2022/04/28 15:56:09;;;;;;;;;;;;;;;;;;5065759;28;19928;-78
2022/04/28 15:58:35;;;;;;;;;;;;;;;;;;5063845;28;19929;-77
2022/04/28 16:01:03;;;;;;;;;;;;;;;;;;5062046;28;19924;-77
2022/04/28 16:03:29;;;;;;;;;;;;;;;;;;5064333;28;19995;-80
2022/04/28 16:05:56;;;;;;;;;;;;;;;;;;5072359;28;19936;-78
2022/04/28 16:08:22;;;;;;;;;;;;;;;;;;5068413;28;19928;-75
2022/04/28 16:10:48;;;;;;;;;;;;;;;;;;5058625;28;19955;-77
2022/04/28 16:13:14;;;;;;;;;;;;;;;;;;5070529;28;19929;-78
2022/04/28 16:15:40;;;;;;;;;;;;;;;;;;5067987;28;19929;-77
2022/04/28 16:18:06;;;;;;;;;;;;;;;;;;5055159;28;19936;-78
2022/04/28 16:20:32;;;;;;;;;;;;;;;;;;5064319;28;19933;-79
2022/04/28 16:22:59;;;;;;;;;;;;;;;;;;5067949;28;19950;-77
2022/04/28 16:25:26;;;;;;;;;;;;;;;;;;5066606;28;19986;-78
2022/04/28 16:27:52;;;;;;;;;;;;;;;;;;5070019;28;20171;-77
2022/04/28 16:30:18;;;;;;;;;;;;;;;;;;5066861;28;19930;-78
2022/04/28 16:32:44;;;;;;;;;;;;;;;;;;5073009;28;19929;-79
2022/04/28 16:35:11;;;;;;;;;;;;;;;;;;5077155;28;19916;-78
2022/04/28 16:37:37;;;;;;;;;;;;;;;;;;5077060;28;20399;-77
2022/04/28 16:40:03;;;;;;;;;;;;;;;;;;5064153;28;20102;-77
2022/04/28 16:42:29;;;;;;;;;;;;;;;;;;5056049;28;19929;-77
2022/04/28 16:44:55;;;;;;;;;;;;;;;;;;5056871;28;20411;-76
2022/04/28 16:47:21;;;;;;;;;;;;;;;;;;5066509;28;19932;-78
2022/04/28 16:49:48;;;;;;;;;;;;;;;;;;5064930;28;19939;-78
2022/04/28 16:52:14;;;;;;;;;;;;;;;;;;5066595;28;19929;-78
2022/04/28 16:54:40;;;;;;;;;;;;;;;;;;5064196;28;19936;-78
2022/04/28 16:57:06;;;;;;;;;;;;;;;;;;5065717;28;20141;-77
2022/04/28 16:59:32;;;;;;;;;;;;;;;;;;5064391;28;19928;-78
2022/04/28 17:01:58;;;;;;;;;;;;;;;;;;5058361;28;19950;-77
2022/04/28 17:04:24;;;;;;;;;;;;;;;;;;5060655;28;20076;-77
2022/04/28 17:06:50;;;;;;;;;;;;;;;;;;5060994;28;19981;-78
2022/04/28 17:09:17;;;;;;;;;;;;;;;;;;5059979;28;19929;-77
2022/04/28 17:11:43;;;;;;;;;;;;;;;;;;5061682;28;19986;-76
2022/04/28 17:14:09;;;;;;;;;;;;;;;;;;5065805;28;19943;-76
2022/04/28 17:16:35;;;;;;;;;;;;;;;;;;5063180;28;19936;-76
2022/04/28 17:19:01;;;;;;;;;;;;;;;;;;5062109;28;19933;-78
2022/04/28 17:21:28;;;;;;;;;;;;;;;;;;5061108;28;19971;-75
2022/04/28 17:23:54;;;;;;;;;;;;;;;;;;5064496;28;19928;-77